Time;durP1;ratioP1;P1;durP2;ratioP2;P2;SDS_P1;SDS_P2;PMS_P1;PMS_P2;Temp;Humidity;BMP_temperature;BMP_pressure;BME280_temperature;BME280_humidity;BME280_pressure;Samples;Min_cycle;Max_cycle;Signal;HPM_P1;HPM_P2
2022/05/06 00:00:55;;;;;;;;;24.00;20.33;;;;;16.05;52.74;101748.19;5054475;28;45601;-67
2022/05/06 00:03:20;;;;;;;;;23.00;20.67;;;;;16.02;53.06;101754.47;5056403;28;45384;-66
2022/05/06 00:05:46;;;;;;;;;20.67;20.67;;;;;16.01;53.00;101749.22;5056306;27;45694;-65
2022/05/06 00:08:13;;;;;;;;;20.00;19.33;;;;;16.02;53.36;101746.50;5091428;27;45975;-66
2022/05/06 00:10:39;;;;;;;;;19.33;19.33;;;;;16.00;52.99;101753.66;5095582;27;45497;-67
2022/05/06 00:13:05;;;;;;;;;18.00;18.00;;;;;16.00;52.63;101743.06;5087945;27;45570;-65
2022/05/06 00:15:30;;;;;;;;;19.00;19.00;;;;;16.05;52.24;101753.50;5059838;28;45621;-66
2022/05/06 00:17:55;;;;;;;;;19.00;16.67;;;;;16.06;53.65;101744.59;5074948;27;45398;-66
2022/05/06 00:20:21;;;;;;;;;15.33;13.00;;;;;16.04;53.00;101760.59;5067039;27;45601;-66
2022/05/06 00:22:46;;;;;;;;;18.00;18.00;;;;;16.01;53.08;101754.53;5062757;28;45651;-64
2022/05/06 00:25:11;;;;;;;;;18.33;16.33;;;;;15.90;53.55;101754.94;5074521;27;45384;-65
2022/05/06 00:27:43;;;;;;;;;21.00;19.33;;;;;15.85;53.41;101752.50;5074544;28;45418;-66
2022/05/06 00:30:09;;;;;;;;;18.00;16.67;;;;;15.83;53.02;101750.81;5059006;28;45482;-66
2022/05/06 00:32:35;;;;;;;;;17.67;17.67;;;;;15.82;52.75;101757.03;5060194;28;45823;-66
2022/05/06 00:35:01;;;;;;;;;11.00;10.00;;;;;15.74;53.67;101751.16;5074105;27;45441;-66
2022/05/06 00:37:26;;;;;;;;;16.67;16.67;;;;;15.78;53.30;101750.13;5075521;27;45531;-65
2022/05/06 00:39:51;;;;;;;;;18.67;16.33;;;;;15.77;53.22;101753.69;5074495;27;45484;-66
2022/05/06 00:42:17;;;;;;;;;19.33;18.67;;;;;15.70;53.19;101749.56;5074434;27;46581;-66
2022/05/06 00:44:42;;;;;;;;;20.33;20.33;;;;;15.70;53.89;101749.56;5065155;27;45501;-66
2022/05/06 00:47:08;;;;;;;;;17.67;15.67;;;;;15.65;54.16;101758.50;5065829;27;45442;-65
2022/05/06 00:49:35;;;;;;;;;17.33;16.67;;;;;15.60;54.45;101754.31;5069731;27;45519;-65
2022/05/06 00:52:03;;;;;;;;;20.00;18.33;;;;;15.64;54.04;101756.81;5071896;28;45682;-65
2022/05/06 00:54:31;;;;;;;;;20.33;19.33;;;;;15.65;54.25;101761.16;5074280;27;45514;-65
2022/05/06 00:56:56;;;;;;;;;17.67;16.00;;;;;15.61;53.51;101758.72;5063515;27;45575;-66
2022/05/06 00:59:22;;;;;;;;;18.33;18.00;;;;;15.66;53.10;101751.41;5081079;27;45496;-66
2022/05/06 01:01:47;;;;;;;;;19.67;18.67;;;;;15.61;53.23;101746.31;5067734;28;45771;-67
2022/05/06 01:04:16;;;;;;;;;16.67;16.67;;;;;15.48;54.24;101749.50;5073527;28;45573;-65
2022/05/06 01:06:42;;;;;;;;;18.33;17.33;;;;;15.44;54.73;101746.94;5073028;28;45445;-67
2022/05/06 01:09:10;;;;;;;;;20.33;19.33;;;;;15.43;54.89;101757.59;5069426;28;45413;-66
2022/05/06 01:11:36;;;;;;;;;23.33;20.33;;;;;15.34;54.57;101750.88;5077566;27;45527;-65
2022/05/06 01:14:02;;;;;;;;;17.33;17.33;;;;;15.37;55.08;101740.16;5077719;27;45436;-67
2022/05/06 01:16:34;;;;;;;;;19.00;19.00;;;;;15.35;55.42;101747.28;5074948;27;45587;-65
2022/05/06 01:19:01;;;;;;;;;18.67;18.00;;;;;15.36;55.01;101748.13;5077600;28;45517;-66
2022/05/06 01:21:27;;;;;;;;;18.67;18.00;;;;;15.40;55.21;101740.03;5077243;28;47216;-65
2022/05/06 01:23:52;;;;;;;;;25.33;24.33;;;;;15.40;55.21;101739.16;5089443;27;45590;-64
2022/05/06 01:26:18;;;;;;;;;22.67;20.00;;;;;15.39;55.07;101743.59;5092624;27;45432;-65
2022/05/06 01:28:45;;;;;;;;;18.67;18.67;;;;;15.39;55.04;101742.72;5058247;28;45610;-66
2022/05/06 01:31:19;;;;;;;;;20.33;19.67;;;;;15.33;55.53;101746.47;5061712;27;45474;-67
2022/05/06 01:33:54;;;;;;;;;22.33;21.00;;;;;15.34;54.85;101742.03;5089318;27;45477;-67
2022/05/06 01:36:22;;;;;;;;;20.00;20.00;;;;;15.35;54.43;101752.56;5077295;27;45456;-64
2022/05/06 01:38:52;;;;;;;;;23.33;22.67;;;;;15.34;55.42;101750.88;5077053;27;45496;-67
2022/05/06 01:41:23;;;;;;;;;20.00;19.33;;;;;15.31;54.18;101745.66;5065780;28;45421;-65
2022/05/06 01:44:09;;;;;;;;;23.00;22.00;;;;;15.29;54.96;101744.88;5056678;28;45561;-64
2022/05/06 01:46:36;;;;;;;;;20.33;19.33;;;;;15.33;55.33;101749.13;5065720;28;45573;-65
2022/05/06 01:49:03;;;;;;;;;22.00;19.00;;;;;15.35;54.31;101743.78;5076176;28;45509;-65
2022/05/06 01:51:29;;;;;;;;;19.67;18.00;;;;;15.40;55.27;101747.97;5076788;28;45562;-65
2022/05/06 01:53:55;;;;;;;;;21.67;20.00;;;;;15.42;54.43;101743.50;5076729;28;45412;-65
2022/05/06 01:56:21;;;;;;;;;20.00;18.33;;;;;15.45;55.03;101743.38;5061382;28;45599;-66
2022/05/06 01:58:47;;;;;;;;;23.00;22.00;;;;;15.46;54.23;101742.44;5072914;28;45477;-64
2022/05/06 02:01:14;;;;;;;;;22.67;22.67;;;;;15.50;54.35;101745.84;5064719;28;45596;-67
2022/05/06 02:06:24;;;;;;;;;23.33;22.00;;;;;15.41;54.77;101740.88;5065118;27;45460;-66
2022/05/06 02:08:49;;;;;;;;;23.00;23.00;;;;;15.40;54.96;101752.41;5060788;27;45544;-64
2022/05/06 02:11:15;;;;;;;;;21.33;20.33;;;;;15.38;54.30;101744.50;5056606;28;45524;-67
2022/05/06 02:13:40;;;;;;;;;20.00;19.67;;;;;15.34;55.22;101756.16;5067683;28;45572;-66
2022/05/06 02:16:06;;;;;;;;;20.00;20.00;;;;;15.35;55.24;101754.38;5073486;27;46654;-66
2022/05/06 02:18:32;;;;;;;;;24.00;22.00;;;;;15.32;55.06;101752.69;5076462;28;45618;-65
2022/05/06 02:20:58;;;;;;;;;22.00;21.00;;;;;15.33;54.70;101756.22;5076328;28;45437;-67
2022/05/06 02:23:23;;;;;;;;;19.00;19.00;;;;;15.35;54.69;101754.38;5076487;28;45492;-65
2022/05/06 02:25:50;;;;;;;;;20.00;20.00;;;;;15.30;55.34;101749.22;5074136;28;45447;-66
2022/05/06 02:28:16;;;;;;;;;22.67;19.67;;;;;15.29;55.68;101751.97;5074529;28;45598;-66
2022/05/06 02:33:25;;;;;;;;;24.67;20.33;;;;;15.27;55.64;101740.53;5075828;28;45504;-65
2022/05/06 02:35:54;;;;;;;;;23.67;22.33;;;;;15.28;55.20;101748.41;5074696;27;45554;-66
2022/05/06 02:38:21;;;;;;;;;20.00;20.00;;;;;15.33;55.03;101743.81;5071542;28;45590;-66
2022/05/06 02:40:48;;;;;;;;;17.00;17.00;;;;;15.36;55.16;101743.69;5053608;28;47077;-67
2022/05/06 02:43:13;;;;;;;;;22.67;22.00;;;;;15.36;54.63;101745.50;5054922;28;45371;-67
2022/05/06 02:45:39;;;;;;;;;18.67;18.00;;;;;15.32;55.25;101739.44;5065345;28;45520;-65
2022/05/06 02:48:05;;;;;;;;;25.67;24.00;;;;;15.33;55.31;101751.75;5068571;28;45580;-65
2022/05/06 02:50:31;;;;;;;;;28.33;24.00;;;;;15.33;54.72;101749.13;5071475;27;46252;-65
2022/05/06 02:52:56;;;;;;;;;22.33;21.33;;;;;15.33;54.77;101743.81;5055230;28;45463;-65
2022/05/06 02:55:23;;;;;;;;;26.33;24.67;;;;;15.37;55.06;101747.25;5073040;27;45414;-66
2022/05/06 02:57:51;;;;;;;;;20.33;20.33;;;;;15.34;55.42;101749.97;5074209;28;45483;-67
2022/05/06 03:00:17;;;;;;;;;21.33;20.33;;;;;15.28;54.55;101748.41;5072540;28;46272;-65
2022/05/06 03:02:43;;;;;;;;;26.00;24.33;;;;;15.21;55.13;101747.78;5054554;27;45492;-68
2022/05/06 03:05:10;;;;;;;;;24.33;24.33;;;;;15.12;55.62;101750.75;5056051;28;45567;-66
2022/05/06 03:07:35;;;;;;;;;27.67;23.33;;;;;15.07;55.75;101751.84;5084044;27;45542;-66
2022/05/06 03:10:02;;;;;;;;;27.00;25.67;;;;;15.02;55.30;101749.38;5075062;27;45516;-65
2022/05/06 03:12:29;;;;;;;;;22.67;22.00;;;;;14.94;55.89;101747.00;5075029;28;45401;-64
2022/05/06 03:14:55;;;;;;;;;21.67;21.00;;;;;14.94;56.50;101747.00;5074960;28;45532;-65
2022/05/06 03:17:20;;;;;;;;;25.67;21.33;;;;;14.93;56.61;101752.34;5072844;27;45601;-66
2022/05/06 03:19:46;;;;;;;;;28.67;28.67;;;;;14.94;56.38;101743.47;5068214;28;48812;-66
2022/05/06 03:22:12;;;;;;;;;23.67;23.67;;;;;14.99;55.50;101749.47;5054788;28;45431;-67
2022/05/06 03:24:38;;;;;;;;;25.33;23.00;;;;;14.95;56.44;101750.50;5055335;28;45640;-65
2022/05/06 03:27:04;;;;;;;;;26.67;25.00;;;;;14.92;56.25;101761.22;5068081;28;45643;-65
2022/05/06 03:29:29;;;;;;;;;28.00;26.00;;;;;14.86;56.48;101749.03;5070383;28;45466;-65
2022/05/06 03:31:56;;;;;;;;;24.67;22.33;;;;;14.88;56.69;101760.44;5066112;28;45562;-64
2022/05/06 03:34:21;;;;;;;;;28.67;25.67;;;;;14.84;56.07;101748.22;5061749;27;45424;-66
2022/05/06 03:36:47;;;;;;;;;26.00;25.00;;;;;14.91;55.93;101756.81;5054385;28;45452;-67
2022/05/06 03:39:13;;;;;;;;;30.67;28.00;;;;;14.82;56.26;101760.66;5054892;28;46320;-65
2022/05/06 03:41:38;;;;;;;;;25.67;25.33;;;;;14.85;56.20;101760.53;5055366;28;45584;-65
2022/05/06 03:44:06;;;;;;;;;24.67;23.00;;;;;14.88;56.53;101760.44;5056131;28;45479;-65
2022/05/06 03:46:32;;;;;;;;;31.33;27.33;;;;;14.77;56.60;101758.16;5069332;28;45534;-66
2022/05/06 03:48:59;;;;;;;;;20.33;20.33;;;;;14.74;56.36;101763.56;5066051;28;46233;-66
2022/05/06 03:51:25;;;;;;;;;25.00;24.33;;;;;14.73;56.88;101761.84;5071507;28;45520;-68
2022/05/06 03:53:52;;;;;;;;;32.67;27.67;;;;;14.74;56.29;101762.69;5074303;28;45508;-66
2022/05/06 03:56:18;;;;;;;;;31.00;28.67;;;;;14.71;56.46;101755.72;5073207;28;45533;-65
2022/05/06 03:58:44;;;;;;;;;24.00;24.00;;;;;14.68;56.35;101757.63;5074306;28;46120;-66
2022/05/06 04:01:11;;;;;;;;;26.00;25.33;;;;;14.73;57.10;101772.44;5072693;27;45454;-65
2022/05/06 04:03:41;;;;;;;;;25.67;24.67;;;;;14.72;56.79;101770.72;5074195;28;45536;-66
2022/05/06 04:06:06;;;;;;;;;22.00;22.00;;;;;14.72;56.53;101773.34;5068624;27;45411;-66
2022/05/06 04:08:32;;;;;;;;;28.33;26.33;;;;;14.74;56.34;101770.63;5085331;27;46155;-65
2022/05/06 04:10:57;;;;;;;;;23.33;23.00;;;;;14.68;57.26;101765.56;5064871;27;45482;-66
2022/05/06 04:13:23;;;;;;;;;27.00;25.67;;;;;14.68;56.89;101779.66;5074443;27;45527;-65
2022/05/06 04:15:50;;;;;;;;;30.00;27.67;;;;;14.64;57.07;101779.81;5068005;28;45387;-65
2022/05/06 04:18:15;;;;;;;;;31.33;29.00;;;;;14.61;56.75;101777.25;5073570;28;46065;-67
2022/05/06 04:23:31;;;;;;;;;33.67;31.33;;;;;14.55;57.57;101779.19;5074418;28;45500;-65
2022/05/06 04:25:58;;;;;;;;;31.33;29.33;;;;;14.48;56.91;101780.31;5064208;28;45493;-66
2022/05/06 04:28:24;;;;;;;;;26.00;26.00;;;;;14.39;57.52;101775.28;5053407;28;45534;-65
2022/05/06 04:30:51;;;;;;;;;32.33;30.00;;;;;14.38;57.77;101772.72;5054572;28;45563;-64
2022/05/06 04:33:18;;;;;;;;;28.67;27.00;;;;;14.39;57.73;101785.00;5055289;28;45554;-67
2022/05/06 04:35:43;;;;;;;;;28.33;27.33;;;;;14.43;57.65;101787.53;5058247;27;45569;-64
2022/05/06 04:38:09;;;;;;;;;31.67;27.33;;;;;14.41;57.14;101789.34;5080742;27;45499;-66
2022/05/06 04:40:34;;;;;;;;;33.33;27.67;;;;;14.36;57.74;101793.91;5053438;28;45416;-66
2022/05/06 04:43:06;;;;;;;;;32.00;31.33;;;;;14.34;58.02;101793.09;5054571;28;45527;-66
2022/05/06 04:45:39;;;;;;;;;24.67;22.67;;;;;14.32;58.29;101792.31;5053398;28;45527;-66
2022/05/06 04:48:06;;;;;;;;;27.67;27.67;;;;;14.35;57.94;101793.06;5074132;28;46103;-65
2022/05/06 04:50:35;;;;;;;;;29.00;28.00;;;;;14.33;57.46;101794.88;5069425;28;45619;-67
2022/05/06 04:53:01;;;;;;;;;28.00;24.00;;;;;14.35;57.95;101798.34;5073854;28;45466;-64
2022/05/06 04:55:26;;;;;;;;;27.00;26.00;;;;;14.30;57.95;101794.13;5072896;28;45604;-66
2022/05/06 04:57:52;;;;;;;;;31.33;28.00;;;;;14.32;58.03;101803.75;5073624;28;46131;-65
2022/05/06 05:00:18;;;;;;;;;30.00;29.33;;;;;14.35;58.13;101795.69;5073161;28;45773;-66
2022/05/06 05:02:44;;;;;;;;;27.67;27.67;;;;;14.38;57.73;101805.31;5066316;28;45518;-65
2022/05/06 05:05:09;;;;;;;;;30.33;28.33;;;;;14.43;57.32;101806.06;5073905;27;45599;-66
2022/05/06 05:07:35;;;;;;;;;29.67;27.00;;;;;14.46;57.01;101805.09;5084608;27;45432;-65
2022/05/06 05:10:00;;;;;;;;;29.67;27.33;;;;;14.46;57.21;101810.38;5074248;27;45484;-65
2022/05/06 05:12:26;;;;;;;;;26.33;26.33;;;;;14.45;57.34;101814.78;5059718;27;45974;-67
2022/05/06 05:14:51;;;;;;;;;27.00;25.67;;;;;14.47;57.92;101810.31;5053198;28;45482;-66
2022/05/06 05:17:17;;;;;;;;;27.33;25.67;;;;;14.52;57.62;101803.13;5063805;28;46163;-65
2022/05/06 05:19:43;;;;;;;;;31.33;28.33;;;;;14.44;57.62;101804.25;5072976;28;45502;-62
2022/05/06 05:22:09;;;;;;;;;29.00;28.00;;;;;14.39;58.09;101808.84;5061789;28;45521;-64
2022/05/06 05:24:35;;;;;;;;;27.00;25.33;;;;;14.41;57.90;101804.38;5067121;28;45728;-65
2022/05/06 05:27:00;;;;;;;;;29.33;27.33;;;;;14.37;58.49;101808.88;5072860;27;45624;-63
2022/05/06 05:29:26;;;;;;;;;29.67;26.00;;;;;14.34;58.07;101809.84;5073509;27;45592;-65
2022/05/06 05:31:52;;;;;;;;;30.33;25.67;;;;;14.39;57.87;101806.19;5067696;27;45556;-65
2022/05/06 05:34:18;;;;;;;;;29.33;28.00;;;;;14.38;57.59;101813.28;5072754;27;45622;-63
2022/05/06 05:36:43;;;;;;;;;27.33;27.33;;;;;14.39;57.37;101815.00;5072461;28;46010;-63
2022/05/06 05:39:09;;;;;;;;;28.00;26.00;;;;;14.41;57.58;101807.00;5069324;28;45449;-65
2022/05/06 05:41:34;;;;;;;;;31.00;29.00;;;;;14.45;57.31;101819.22;5061444;28;45576;-63
2022/05/06 05:49:28;;;;;;;;;30.67;29.00;;;;;14.31;58.17;101809.94;5061679;28;45648;-65
2022/05/06 05:51:54;;;;;;;;;29.00;28.00;;;;;14.40;58.10;101827.31;5076046;27;45476;-61
2022/05/06 05:54:19;;;;;;;;;35.00;30.67;;;;;14.41;57.72;101828.19;5097603;27;45711;-63
2022/05/06 05:56:45;;;;;;;;;29.67;28.00;;;;;14.48;57.72;101824.41;5078928;27;61956;-65
2022/05/06 05:59:10;;;;;;;;;27.00;27.00;;;;;14.52;57.53;101823.41;5076838;28;45427;-62
2022/05/06 06:01:36;;;;;;;;;31.00;29.00;;;;;14.52;58.27;101821.66;5074817;28;45789;-61
2022/05/06 06:04:02;;;;;;;;;33.33;30.33;;;;;14.55;57.93;101815.41;5074999;28;45602;-60
2022/05/06 06:06:28;;;;;;;;;29.67;28.67;;;;;14.58;57.78;101820.59;5073746;27;45499;-63
2022/05/06 06:08:53;;;;;;;;;33.67;32.00;;;;;14.64;57.81;101808.94;5074765;27;45456;-61
2022/05/06 06:11:18;;;;;;;;;33.67;32.33;;;;;14.65;57.60;101802.75;5068314;27;45684;-63
2022/05/06 06:13:44;;;;;;;;;36.00;32.33;;;;;14.69;57.70;101812.28;5067172;28;45514;-65
2022/05/06 06:16:09;;;;;;;;;30.33;28.67;;;;;14.72;57.86;101804.25;5070470;28;45492;-64
2022/05/06 06:18:34;;;;;;;;;39.67;33.00;;;;;14.76;57.80;101816.47;5065320;28;45436;-66
2022/05/06 06:21:00;;;;;;;;;36.67;33.00;;;;;14.79;57.34;101811.06;5055774;28;45470;-64
2022/05/06 06:23:25;;;;;;;;;33.00;31.33;;;;;14.80;57.50;101824.28;5057591;28;45610;-67
2022/05/06 06:25:50;;;;;;;;;31.00;30.00;;;;;14.80;57.66;101813.69;5056441;28;45839;-69
2022/05/06 06:28:16;;;;;;;;;32.00;31.67;;;;;14.83;57.31;101825.06;5067238;28;45475;-68
2022/05/06 06:30:41;;;;;;;;;30.33;30.33;;;;;14.83;57.29;101817.13;5073190;28;45536;-66
2022/05/06 06:33:07;;;;;;;;;34.00;32.33;;;;;14.86;57.46;101827.66;5076455;27;45387;-66
2022/05/06 06:35:33;;;;;;;;;32.33;31.67;;;;;14.79;57.60;101822.53;5076454;27;46000;-67
2022/05/06 06:37:58;;;;;;;;;37.67;34.00;;;;;14.88;57.41;101833.72;5083042;27;45624;-66
2022/05/06 06:40:24;;;;;;;;;40.33;34.00;;;;;14.90;57.96;101832.75;5094325;27;45460;-67
2022/05/06 06:42:49;;;;;;;;;34.67;31.00;;;;;14.92;58.18;101825.66;5057330;28;45675;-67
2022/05/06 06:45:15;;;;;;;;;30.00;29.00;;;;;14.97;57.33;101823.72;5060481;28;45457;-66
2022/05/06 06:47:41;;;;;;;;;40.00;33.67;;;;;15.03;57.29;101831.44;5057249;28;45453;-65
2022/05/06 06:50:07;;;;;;;;;37.00;34.00;;;;;15.05;57.76;101830.53;5056228;28;45517;-66
2022/05/06 06:52:32;;;;;;;;;36.00;31.00;;;;;15.06;56.96;101826.97;5055786;28;45611;-66
2022/05/06 06:54:58;;;;;;;;;42.33;34.67;;;;;15.05;56.49;101820.81;5055779;28;45643;-69
2022/05/06 06:57:26;;;;;;;;;40.33;35.33;;;;;15.10;57.11;101826.81;5057065;28;45443;-64
2022/05/06 06:59:51;;;;;;;;;40.00;34.00;;;;;15.15;57.83;101826.63;5055990;28;45578;-63
2022/05/06 07:02:16;;;;;;;;;32.33;31.33;;;;;15.19;57.78;101826.47;5056915;28;45383;-65
2022/05/06 07:04:42;;;;;;;;;34.67;32.33;;;;;15.24;57.26;101824.53;5054145;28;50572;-69
2022/05/06 07:12:34;;;;;;;;;32.00;29.33;;;;;15.39;56.30;101825.78;5076224;28;45457;-69
2022/05/06 07:15:02;;;;;;;;;33.33;31.00;;;;;15.42;56.88;101825.69;5075352;28;50798;-64
2022/05/06 07:17:28;;;;;;;;;31.33;28.00;;;;;15.48;56.83;101832.53;5074097;28;45486;-64
2022/05/06 07:19:53;;;;;;;;;31.67;31.67;;;;;15.49;56.35;101823.66;5075872;28;45513;-66
2022/05/06 07:22:18;;;;;;;;;27.00;26.33;;;;;15.59;56.20;101840.09;5075919;28;45577;-66
2022/05/06 07:24:44;;;;;;;;;31.33;29.33;;;;;15.59;56.00;101827.69;5075611;27;45528;-63
2022/05/06 07:27:09;;;;;;;;;31.00;31.00;;;;;15.64;56.05;101841.66;5073863;28;45456;-63
2022/05/06 07:29:34;;;;;;;;;31.33;30.67;;;;;15.67;55.32;101838.91;5075925;28;45461;-62
2022/05/06 07:32:00;;;;;;;;;27.67;27.67;;;;;15.62;55.86;101845.28;5066088;28;45466;-68
2022/05/06 07:34:25;;;;;;;;;30.00;29.00;;;;;15.64;55.77;101839.00;5074062;28;46046;-68
2022/05/06 07:36:51;;;;;;;;;28.00;26.33;;;;;15.67;56.09;101846.00;5079081;27;45528;-67
2022/05/06 07:39:16;;;;;;;;;32.67;30.00;;;;;15.68;55.80;101847.72;5082470;27;45488;-62
2022/05/06 07:41:46;;;;;;;;;34.67;32.67;;;;;15.70;55.93;101845.06;5075511;27;45463;-64
2022/05/06 07:44:12;;;;;;;;;30.00;30.00;;;;;15.75;55.48;101846.59;5055332;28;47972;-67
2022/05/06 07:46:38;;;;;;;;;32.00;31.33;;;;;15.78;55.79;101846.50;5056984;28;45450;-65
2022/05/06 07:49:06;;;;;;;;;32.33;30.33;;;;;15.76;56.41;101840.38;5055472;28;45541;-63
2022/05/06 07:51:32;;;;;;;;;30.67;30.33;;;;;15.85;55.46;101852.41;5063098;28;45612;-65
2022/05/06 07:53:57;;;;;;;;;34.00;28.00;;;;;15.89;54.75;101851.41;5076113;28;47000;-63
2022/05/06 07:56:23;;;;;;;;;38.33;32.67;;;;;15.90;55.15;101838.09;5075410;28;45488;-66
2022/05/06 07:58:53;;;;;;;;;33.67;32.00;;;;;15.97;55.20;101845.81;5075119;28;45473;-67
2022/05/06 08:04:32;;;;;;;;;33.33;30.67;;;;;15.99;55.20;101831.56;5064385;28;45477;-68
2022/05/06 08:06:50;;;;;;;;;29.00;28.00;;;;;15.98;54.85;101837.75;5054511;28;45544;-67
2022/05/06 08:09:15;;;;;;;;;34.00;29.33;;;;;16.03;55.69;101837.59;5054805;28;45495;-64
2022/05/06 08:11:40;;;;;;;;;27.33;27.33;;;;;16.06;55.10;101838.34;5064981;28;45629;-69
2022/05/06 08:14:06;;;;;;;;;31.00;26.33;;;;;16.05;55.19;101838.41;5071890;28;47323;-65
2022/05/06 08:16:31;;;;;;;;;30.00;26.67;;;;;16.08;54.69;101836.50;5072198;28;45497;-64
2022/05/06 08:18:56;;;;;;;;;25.67;25.67;;;;;16.09;54.90;101840.00;5073802;28;56649;-69
2022/05/06 08:21:22;;;;;;;;;35.67;31.33;;;;;16.10;55.59;101839.97;5068664;28;45430;-65
2022/05/06 08:23:48;;;;;;;;;35.67;32.67;;;;;16.15;55.02;101838.91;5054999;28;46162;-65
2022/05/06 08:26:13;;;;;;;;;31.00;31.00;;;;;16.11;55.10;101832.84;5058734;28;45645;-66
2022/05/06 08:28:38;;;;;;;;;34.00;29.00;;;;;16.16;54.85;101838.84;5072197;28;45638;-63
2022/05/06 08:31:04;;;;;;;;;33.33;31.00;;;;;16.19;55.51;101830.78;5069639;28;45582;-66
2022/05/06 08:33:29;;;;;;;;;25.67;25.67;;;;;16.25;55.14;101827.88;5067654;28;46739;-68
2022/05/06 08:35:54;;;;;;;;;25.33;24.00;;;;;16.32;54.44;101831.16;5063794;27;46119;-64
2022/05/06 08:38:19;;;;;;;;;28.33;26.00;;;;;16.39;54.77;101830.00;5073183;27;45722;-68
2022/05/06 08:40:48;;;;;;;;;32.67;28.00;;;;;16.42;54.09;101837.84;5067204;28;45528;-66
2022/05/06 08:43:14;;;;;;;;;163.67;154.33;;;;;16.50;53.99;101837.53;5055216;28;45479;-66
2022/05/06 08:51:29;;;;;;;;;22.67;21.00;;;;;16.64;53.39;101829.88;5048764;28;45465;-68
2022/05/06 08:53:55;;;;;;;;;23.67;22.33;;;;;16.67;53.54;101835.03;5064799;28;45551;-66
2022/05/06 08:56:20;;;;;;;;;29.67;26.67;;;;;16.63;53.28;101821.94;5059579;28;45464;-67
2022/05/06 08:58:46;;;;;;;;;21.33;20.33;;;;;16.68;53.88;101823.47;5067822;28;45523;-65
2022/05/06 09:01:12;;;;;;;;;23.33;22.00;;;;;16.71;53.22;101811.88;5074341;28;45496;-65
2022/05/06 09:03:39;;;;;;;;;22.33;21.67;;;;;16.77;53.61;101822.28;5067036;28;48421;-67
2022/05/06 09:06:04;;;;;;;;;26.00;25.00;;;;;16.80;53.10;101827.47;5067565;27;45501;-65
2022/05/06 09:08:43;;;;;;;;;22.33;21.00;;;;;16.78;52.89;101824.88;5084044;27;45549;-66
2022/05/06 09:11:10;;;;;;;;;22.67;21.00;;;;;16.79;52.65;101823.06;5054061;28;45463;-66
2022/05/06 09:13:59;;;;;;;;;21.00;21.00;;;;;16.80;52.69;101818.66;5062356;28;45466;-68
2022/05/06 09:16:41;;;;;;;;;18.33;18.33;;;;;16.87;52.84;101823.66;5060125;27;45535;-68
2022/05/06 09:19:09;;;;;;;;;20.00;19.33;;;;;16.91;52.03;101816.41;5059198;27;45467;-67
2022/05/06 09:21:36;;;;;;;;;23.00;21.33;;;;;16.91;52.33;101814.59;5055373;27;45554;-64
2022/05/06 09:24:17;;;;;;;;;23.67;23.00;;;;;16.99;52.83;101823.09;5053572;28;46022;-64
2022/05/06 09:27:00;;;;;;;;;14.67;13.33;;;;;17.03;51.49;101813.19;5054484;28;45587;-65
2022/05/06 09:29:41;;;;;;;;;17.67;13.67;;;;;17.08;51.65;101813.00;5058041;28;45481;-64
2022/05/06 09:32:22;;;;;;;;;12.33;11.67;;;;;17.12;51.65;101807.50;5081838;27;45499;-66
2022/05/06 09:34:50;;;;;;;;;17.00;15.67;;;;;17.13;51.48;101801.25;5077111;27;45458;-66
2022/05/06 09:38:02;;;;;;;;;14.00;14.00;;;;;17.19;51.04;101813.41;5077460;27;45678;-67
2022/05/06 09:40:29;;;;;;;;;13.67;12.67;;;;;17.25;51.71;101812.25;5054760;28;45513;-68
2022/05/06 09:42:54;;;;;;;;;16.33;15.00;;;;;17.28;52.24;101806.84;5070419;27;45570;-66
2022/05/06 09:45:39;;;;;;;;;16.33;14.33;;;;;17.30;50.73;101810.28;5074401;27;45487;-65
2022/05/06 09:48:09;;;;;;;;;15.33;15.33;;;;;17.34;51.15;101806.56;5097329;27;45616;-66
2022/05/06 09:50:36;;;;;;;;;13.67;13.67;;;;;17.38;51.26;101801.03;5079070;27;45546;-67
2022/05/06 09:53:03;;;;;;;;;14.67;14.00;;;;;17.41;51.45;101806.22;5055608;28;45613;-68
2022/05/06 09:55:29;;;;;;;;;14.00;13.00;;;;;17.44;51.20;101805.22;5065687;27;45467;-68
2022/05/06 09:57:59;;;;;;;;;19.33;16.33;;;;;17.44;50.52;101802.56;5068202;27;45498;-65
2022/05/06 10:00:26;;;;;;;;;14.00;12.67;;;;;17.49;50.36;101797.00;5067827;27;45577;-64
2022/05/06 10:02:52;;;;;;;;;14.67;14.00;;;;;17.51;49.86;101804.00;5070961;28;45607;-66
2022/05/06 10:05:17;;;;;;;;;15.67;13.67;;;;;17.54;49.72;101795.88;5060818;28;45983;-67
2022/05/06 10:07:43;;;;;;;;;13.00;13.00;;;;;17.55;49.02;101800.28;5083880;27;45560;-66
2022/05/06 10:10:22;;;;;;;;;15.00;15.00;;;;;17.57;49.63;101803.75;5082099;27;45564;-68
2022/05/06 10:12:53;;;;;;;;;18.00;15.00;;;;;17.54;49.48;101787.03;5070047;27;45611;-65
2022/05/06 10:15:21;;;;;;;;;19.00;16.33;;;;;17.63;49.91;101795.47;5072708;27;45660;-65
2022/05/06 10:17:50;;;;;;;;;13.33;13.33;;;;;17.69;50.17;101798.78;5066466;27;45549;-68
2022/05/06 10:20:33;;;;;;;;;12.67;12.67;;;;;17.72;49.55;101786.19;5076567;28;45434;-65
2022/05/06 10:23:00;;;;;;;;;14.00;12.00;;;;;17.66;49.26;101783.81;5067106;27;45487;-67
2022/05/06 10:25:40;;;;;;;;;13.00;13.00;;;;;17.76;49.67;101792.22;5057541;27;45515;-62
2022/05/06 10:34:10;;;;;;;;;15.00;15.00;;;;;17.88;49.34;101792.56;5076249;28;45511;-64
2022/05/06 10:36:53;;;;;;;;;18.00;16.00;;;;;17.84;48.54;101779.50;5075439;27;45692;-67
2022/05/06 10:39:26;;;;;;;;;15.67;14.00;;;;;17.93;47.89;101789.69;5068065;27;45398;-64
2022/05/06 10:42:00;;;;;;;;;11.67;10.00;;;;;17.96;47.35;101784.22;5065801;28;45537;-66
2022/05/06 10:44:33;;;;;;;;;19.67;19.67;;;;;18.02;47.76;101777.72;5070506;28;45520;-64
2022/05/06 10:46:58;;;;;;;;;17.67;16.33;;;;;18.07;46.94;101783.72;5075955;28;45492;-67
2022/05/06 10:49:39;;;;;;;;;16.33;15.33;;;;;18.08;47.10;101782.75;5076771;27;45544;-63
2022/05/06 10:52:25;;;;;;;;;17.33;17.33;;;;;18.13;47.75;101777.22;5060292;27;45500;-65
2022/05/06 10:55:00;;;;;;;;;18.33;18.33;;;;;18.16;48.05;101771.75;5067149;28;45544;-66
2022/05/06 10:57:27;;;;;;;;;18.33;16.00;;;;;18.17;47.00;101766.34;5068099;27;46183;-65
2022/05/06 10:59:57;;;;;;;;;15.33;15.33;;;;;18.21;47.38;101761.72;5065553;27;45831;-67
2022/05/06 11:02:25;;;;;;;;;17.33;15.00;;;;;18.26;47.03;101765.91;5069025;28;45870;-68
2022/05/06 11:04:54;;;;;;;;;16.00;16.00;;;;;18.32;47.31;101765.63;5067409;28;45457;-66
2022/05/06 11:07:20;;;;;;;;;15.67;15.67;;;;;18.36;47.16;101766.31;5073033;28;46343;-64
2022/05/06 11:09:46;;;;;;;;;17.67;15.67;;;;;18.37;46.83;101764.50;5073011;28;45544;-66
2022/05/06 11:12:33;;;;;;;;;13.00;13.00;;;;;18.41;46.81;101763.44;5070107;28;45584;-62
2022/05/06 11:15:02;;;;;;;;;15.33;15.33;;;;;18.42;46.34;101754.50;5064226;28;45553;-63
2022/05/06 11:17:27;;;;;;;;;12.67;12.67;;;;;18.42;46.40;101750.03;5065716;27;46167;-66
2022/05/06 11:19:54;;;;;;;;;13.00;13.00;;;;;18.52;45.88;101748.63;5056488;28;45580;-65
2022/05/06 11:22:23;;;;;;;;;14.33;14.33;;;;;18.51;46.28;101744.25;5071932;28;45516;-68
2022/05/06 11:24:54;;;;;;;;;14.33;14.33;;;;;18.55;45.95;101756.47;5068660;27;45655;-65
2022/05/06 11:27:20;;;;;;;;;14.00;14.00;;;;;18.59;45.59;101748.31;5072916;27;45553;-65
2022/05/06 11:30:01;;;;;;;;;14.33;13.33;;;;;18.63;46.38;101741.91;5069162;27;45584;-68
2022/05/06 11:32:28;;;;;;;;;15.00;15.00;;;;;18.64;45.33;101751.59;5055427;28;45672;-66
2022/05/06 11:35:11;;;;;;;;;12.33;12.33;;;;;18.64;45.07;101741.81;5071453;27;45601;-67
2022/05/06 11:37:40;;;;;;;;;16.00;14.67;;;;;18.67;44.59;101741.69;5062859;28;45508;-67
2022/05/06 11:42:49;;;;;;;;;12.00;12.00;;;;;18.74;45.09;101732.44;5058208;28;45569;-67
2022/05/06 11:48:05;;;;;;;;;12.33;12.33;;;;;18.84;43.91;101745.31;5055031;28;45807;-66
2022/05/06 11:50:34;;;;;;;;;14.00;13.00;;;;;18.85;43.53;101731.88;5070668;28;45457;-66